createdAt,value
2022-08-02T00:00:49.766Z,19.08
2022-08-02T00:01:49.766Z,19.19
2022-08-02T00:02:49.674Z,19.12
2022-08-02T00:03:49.617Z,19.18
2022-08-02T00:04:49.580Z,19.16
2022-08-02T00:05:53.158Z,19.19
2022-08-02T00:06:49.495Z,19.24
2022-08-02T00:07:49.422Z,19.16
2022-08-02T00:08:49.383Z,19.15
2022-08-02T00:09:49.322Z,19.22
2022-08-02T00:10:49.273Z,19.29
2022-08-02T00:11:49.226Z,19.26
2022-08-02T00:12:49.191Z,19.16
2022-08-02T00:13:49.145Z,19.21
2022-08-02T00:14:49.098Z,19.15
2022-08-02T00:15:49.045Z,19.19
2022-08-02T00:16:48.978Z,19.21
2022-08-02T00:17:48.946Z,19.22
2022-08-02T00:18:48.883Z,19.14
2022-08-02T00:19:48.839Z,19.15
2022-08-02T00:20:48.800Z,19.08
2022-08-02T00:21:48.741Z,18.99
2022-08-02T00:22:48.690Z,19.00
2022-08-02T00:24:28.312Z,18.89
2022-08-02T00:24:48.612Z,18.92
2022-08-02T00:25:55.131Z,18.92
2022-08-02T00:26:48.491Z,18.84
2022-08-02T00:27:48.441Z,18.73
2022-08-02T00:28:48.407Z,18.80
2022-08-02T00:29:53.285Z,18.75
2022-08-02T00:30:48.298Z,18.78
2022-08-02T00:31:48.244Z,18.74
2022-08-02T00:32:48.201Z,18.73
2022-08-02T00:34:27.122Z,18.75
2022-08-02T00:34:48.099Z,18.73
2022-08-02T00:35:48.058Z,18.80
2022-08-02T00:36:48.001Z,18.80
2022-08-02T00:37:47.964Z,18.75
2022-08-02T00:38:47.908Z,18.78
2022-08-02T00:39:47.857Z,18.77
2022-08-02T00:40:47.833Z,18.80
2022-08-02T00:41:47.754Z,18.80
2022-08-02T00:42:47.723Z,18.78
2022-08-02T00:43:47.662Z,18.75
2022-08-02T00:44:47.614Z,18.75
2022-08-02T00:46:02.255Z,18.74
2022-08-02T00:46:47.515Z,18.74
2022-08-02T00:47:47.493Z,18.74
2022-08-02T00:48:47.416Z,18.75
2022-08-02T00:49:47.369Z,18.71
2022-08-02T00:50:47.329Z,18.70
2022-08-02T00:51:47.282Z,18.60
2022-08-02T00:52:47.218Z,18.75
2022-08-02T00:53:47.166Z,18.65
2022-08-02T00:54:47.122Z,18.62
2022-08-02T00:55:47.086Z,18.62
2022-08-02T00:56:49.977Z,18.63
2022-08-02T00:57:46.973Z,18.65
2022-08-02T00:58:46.923Z,18.52
2022-08-02T00:59:46.871Z,18.56
2022-08-02T01:00:46.840Z,18.45
2022-08-02T01:01:57.250Z,18.43
2022-08-02T01:02:46.746Z,18.40
2022-08-02T01:03:46.688Z,18.28
2022-08-02T01:04:46.628Z,18.28
2022-08-02T01:06:10.035Z,18.23
2022-08-02T01:06:46.532Z,18.20
2022-08-02T01:07:46.500Z,18.23
2022-08-02T01:08:46.444Z,18.19
2022-08-02T01:09:46.386Z,18.22
2022-08-02T01:10:46.331Z,18.18
2022-08-02T01:11:46.281Z,18.07
2022-08-02T01:12:46.237Z,18.07
2022-08-02T01:13:46.200Z,18.13
2022-08-02T01:14:46.148Z,18.16
2022-08-02T01:15:46.083Z,18.18
2022-08-02T01:16:46.035Z,18.20
2022-08-02T01:17:46.001Z,18.26
2022-08-02T01:18:45.940Z,18.23
2022-08-02T01:19:45.904Z,18.16
2022-08-02T01:20:45.841Z,18.20
2022-08-02T01:21:45.788Z,18.19
2022-08-02T01:23:01.014Z,18.20
2022-08-02T01:23:45.693Z,18.31
2022-08-02T01:24:45.641Z,18.31
2022-08-02T01:25:45.627Z,18.34
2022-08-02T01:26:45.558Z,18.31
2022-08-02T01:27:45.493Z,18.31
2022-08-02T01:28:45.449Z,18.29
2022-08-02T01:29:45.402Z,18.25
2022-08-02T01:30:45.343Z,18.20
2022-08-02T01:31:45.315Z,18.22
2022-08-02T01:32:45.247Z,18.20
2022-08-02T01:33:45.213Z,18.29
2022-08-02T01:34:45.151Z,18.20
2022-08-02T01:35:47.165Z,18.20
2022-08-02T01:36:45.070Z,18.25
2022-08-02T01:37:44.998Z,18.19
2022-08-02T01:38:44.971Z,18.20
2022-08-02T01:39:44.906Z,18.04
2022-08-02T01:40:44.856Z,18.07
2022-08-02T01:41:44.800Z,18.05
2022-08-02T01:42:44.749Z,18.10
2022-08-02T01:43:44.716Z,18.10
2022-08-02T01:44:44.651Z,18.03
2022-08-02T01:45:44.613Z,18.01
2022-08-02T01:46:44.559Z,18.05
2022-08-02T01:47:44.506Z,18.04
2022-08-02T01:48:44.468Z,17.94
2022-08-02T01:49:44.543Z,18.04
2022-08-02T01:50:44.366Z,18.05
2022-08-02T01:51:44.324Z,17.97
2022-08-02T01:52:53.096Z,17.98
2022-08-02T01:53:44.207Z,17.98
2022-08-02T01:54:44.166Z,18.03
2022-08-02T01:55:58.228Z,18.00
2022-08-02T01:56:44.071Z,18.01
2022-08-02T01:57:44.014Z,18.04
2022-08-02T01:58:43.959Z,17.97
2022-08-02T01:59:43.917Z,17.98
2022-08-02T02:00:43.861Z,17.97
2022-08-02T02:01:43.893Z,18.00
2022-08-02T02:02:43.761Z,18.00
2022-08-02T02:03:43.738Z,18.04
2022-08-02T02:04:43.665Z,18.04
2022-08-02T02:05:43.619Z,17.98
2022-08-02T02:06:43.576Z,17.94
2022-08-02T02:07:43.514Z,17.85
2022-08-02T02:08:43.466Z,17.86
2022-08-02T02:09:50.515Z,17.80
2022-08-02T02:10:43.364Z,17.82
2022-08-02T02:12:05.937Z,17.74
2022-08-02T02:12:43.267Z,17.76
2022-08-02T02:13:43.222Z,17.72
2022-08-02T02:14:51.538Z,17.72
2022-08-02T02:15:43.117Z,17.68
2022-08-02T02:16:43.071Z,17.68
2022-08-02T02:17:50.715Z,17.72
2022-08-02T02:18:42.968Z,17.57
2022-08-02T02:19:42.938Z,17.65
2022-08-02T02:20:42.867Z,17.54
2022-08-02T02:21:42.818Z,17.60
2022-08-02T02:22:42.784Z,17.64
2022-08-02T02:23:42.725Z,17.64
2022-08-02T02:24:42.670Z,17.57
2022-08-02T02:25:46.799Z,17.59
2022-08-02T02:26:44.269Z,17.64
2022-08-02T02:27:42.524Z,17.46
2022-08-02T02:28:42.471Z,17.48
2022-08-02T02:29:42.437Z,17.46
2022-08-02T02:30:42.373Z,17.48
2022-08-02T02:31:42.328Z,17.51
2022-08-02T02:32:42.290Z,17.44
2022-08-02T02:33:42.226Z,17.49
2022-08-02T02:34:42.188Z,17.45
2022-08-02T02:35:42.164Z,17.44
2022-08-02T02:36:42.074Z,17.29
2022-08-02T02:37:42.027Z,17.41
2022-08-02T02:38:41.992Z,17.33
2022-08-02T02:39:41.923Z,17.34
2022-08-02T02:40:41.877Z,17.41
2022-08-02T02:41:41.826Z,17.29
2022-08-02T02:42:41.773Z,17.29
2022-08-02T02:43:41.740Z,17.22
2022-08-02T02:44:41.704Z,17.20
2022-08-02T02:45:41.636Z,17.15
2022-08-02T02:46:41.577Z,17.06
2022-08-02T02:47:41.892Z,16.99
2022-08-02T02:48:41.475Z,17.02
2022-08-02T02:49:41.444Z,16.89
2022-08-02T02:50:48.238Z,16.81
2022-08-02T02:51:41.328Z,16.89
2022-08-02T02:52:41.280Z,16.81
2022-08-02T02:54:32.101Z,16.74
2022-08-02T02:54:41.193Z,16.76
2022-08-02T02:55:41.132Z,16.74
2022-08-02T02:56:41.076Z,16.83
2022-08-02T02:57:41.031Z,16.76
2022-08-02T02:58:40.976Z,16.74
2022-08-02T02:59:48.956Z,16.78
2022-08-02T03:00:40.924Z,16.72
2022-08-02T03:01:57.230Z,16.57
2022-08-02T03:02:40.781Z,16.56
2022-08-02T03:03:40.730Z,16.47
2022-08-02T03:04:56.979Z,16.41
2022-08-02T03:05:40.643Z,16.38
2022-08-02T03:06:40.694Z,16.36
2022-08-02T03:07:40.530Z,16.36
2022-08-02T03:08:40.477Z,16.39
2022-08-02T03:09:40.431Z,16.35
2022-08-02T03:10:40.391Z,16.35
2022-08-02T03:11:40.329Z,16.36
2022-08-02T03:12:40.278Z,16.32
2022-08-02T03:13:40.226Z,16.38
2022-08-02T03:14:40.178Z,16.29
2022-08-02T03:15:40.144Z,16.28
2022-08-02T03:16:40.076Z,16.26
2022-08-02T03:17:40.038Z,16.20
2022-08-02T03:18:39.978Z,16.15
2022-08-02T03:19:39.932Z,16.26
2022-08-02T03:20:39.895Z,16.31
2022-08-02T03:21:39.831Z,16.28
2022-08-02T03:22:39.779Z,16.26
2022-08-02T03:23:39.726Z,16.21
2022-08-02T03:24:39.676Z,16.28
2022-08-02T03:25:39.647Z,16.23
2022-08-02T03:26:39.575Z,16.16
2022-08-02T03:27:39.525Z,16.16
2022-08-02T03:28:39.490Z,16.26
2022-08-02T03:29:39.425Z,16.17
2022-08-02T03:30:39.388Z,16.26
2022-08-02T03:31:39.341Z,16.15
2022-08-02T03:32:39.273Z,16.13
2022-08-02T03:33:39.227Z,16.12
2022-08-02T03:34:39.171Z,16.02
2022-08-02T03:35:39.148Z,16.05
2022-08-02T03:36:39.089Z,16.04
2022-08-02T03:37:39.021Z,16.05
2022-08-02T03:38:38.973Z,16.08
2022-08-02T03:39:49.629Z,16.09
2022-08-02T03:40:38.872Z,16.09
2022-08-02T03:41:38.835Z,15.95
2022-08-02T03:42:38.771Z,16.05
2022-08-02T03:43:38.716Z,16.00
2022-08-02T03:44:38.667Z,15.95
2022-08-02T03:45:38.620Z,15.95
2022-08-02T03:46:38.582Z,15.83
2022-08-02T03:47:38.521Z,15.77
2022-08-02T03:48:38.468Z,15.84
2022-08-02T03:49:38.467Z,15.79
2022-08-02T03:50:38.367Z,15.77
2022-08-02T03:51:38.329Z,15.79
2022-08-02T03:52:38.285Z,15.80
2022-08-02T03:53:38.216Z,15.82
2022-08-02T03:54:45.701Z,15.91
2022-08-02T03:55:38.124Z,15.92
2022-08-02T03:56:38.091Z,15.90
2022-08-02T03:57:38.014Z,15.91
2022-08-02T03:58:37.966Z,15.88
2022-08-02T03:59:37.911Z,15.86
2022-08-02T04:00:37.928Z,15.88
2022-08-02T04:01:37.812Z,15.83
2022-08-02T04:02:37.775Z,15.73
2022-08-02T04:03:37.724Z,15.79
2022-08-02T04:04:37.661Z,15.75
2022-08-02T04:05:37.613Z,15.77
2022-08-02T04:06:40.167Z,15.68
2022-08-02T04:08:34.930Z,15.76
2022-08-02T04:08:38.486Z,15.73
2022-08-02T04:09:37.428Z,15.77
2022-08-02T04:10:37.356Z,15.77
2022-08-02T04:11:37.312Z,15.75
2022-08-02T04:12:37.256Z,15.68
2022-08-02T04:13:37.285Z,15.67
2022-08-02T04:14:37.153Z,15.70
2022-08-02T04:15:37.122Z,15.65
2022-08-02T04:16:37.056Z,15.59
2022-08-02T04:17:37.012Z,15.58
2022-08-02T04:18:36.953Z,15.61
2022-08-02T04:19:36.900Z,15.73
2022-08-02T04:20:36.875Z,15.67
2022-08-02T04:21:41.421Z,15.70
2022-08-02T04:22:36.747Z,15.68
2022-08-02T04:23:36.703Z,15.73
2022-08-02T04:24:46.795Z,15.76
2022-08-02T04:25:40.048Z,15.76
2022-08-02T04:26:36.558Z,15.70
2022-08-02T04:27:51.367Z,15.79
2022-08-02T04:28:36.447Z,15.72
2022-08-02T04:29:36.415Z,15.68
2022-08-02T04:30:36.346Z,15.79
2022-08-02T04:31:36.296Z,15.64
2022-08-02T04:32:36.293Z,15.79
2022-08-02T04:33:36.193Z,15.79
2022-08-02T04:34:36.142Z,15.82
2022-08-02T04:35:36.104Z,15.79
2022-08-02T04:36:36.040Z,15.83
2022-08-02T04:37:35.990Z,15.79
2022-08-02T04:38:35.937Z,15.83
2022-08-02T04:39:35.904Z,15.84
2022-08-02T04:40:35.837Z,15.83
2022-08-02T04:41:35.786Z,15.79
2022-08-02T04:42:35.736Z,15.80
2022-08-02T04:43:35.686Z,15.82
2022-08-02T04:44:35.641Z,15.79
2022-08-02T04:45:35.602Z,15.82
2022-08-02T04:46:35.534Z,15.79
2022-08-02T04:48:02.588Z,15.77
2022-08-02T04:48:35.435Z,15.77
2022-08-02T04:49:35.466Z,15.83
2022-08-02T04:50:35.359Z,15.80
2022-08-02T04:51:38.363Z,15.75
2022-08-02T04:52:35.248Z,15.84
2022-08-02T04:53:35.178Z,15.80
2022-08-02T04:54:35.130Z,15.73
2022-08-02T04:55:35.078Z,15.82
2022-08-02T04:56:35.029Z,15.79
2022-08-02T04:57:34.990Z,15.79
2022-08-02T04:58:40.475Z,15.82
2022-08-02T04:59:34.879Z,15.88
2022-08-02T05:00:34.875Z,15.90
2022-08-02T05:01:34.779Z,16.00
2022-08-02T05:02:34.737Z,15.98
2022-08-02T05:03:34.752Z,15.97
2022-08-02T05:04:34.647Z,15.97
2022-08-02T05:05:34.572Z,15.92
2022-08-02T05:06:34.523Z,15.94
2022-08-02T05:07:36.112Z,15.95
2022-08-02T05:08:34.436Z,15.92
2022-08-02T05:09:34.385Z,15.91
2022-08-02T05:10:34.326Z,15.95
2022-08-02T05:11:36.722Z,16.00
2022-08-02T05:12:34.216Z,16.05
2022-08-02T05:13:34.197Z,16.12
2022-08-02T05:14:34.118Z,16.16
2022-08-02T05:15:34.065Z,16.20
2022-08-02T05:16:34.020Z,16.15
2022-08-02T05:17:33.967Z,16.17
2022-08-02T05:18:33.936Z,16.28
2022-08-02T05:19:33.864Z,16.28
2022-08-02T05:20:33.817Z,16.29
2022-08-02T05:21:33.761Z,16.35
2022-08-02T05:22:33.717Z,16.26
2022-08-02T05:23:33.684Z,16.38
2022-08-02T05:24:33.611Z,16.41
2022-08-02T05:25:33.570Z,16.41
2022-08-02T05:26:33.510Z,16.36
2022-08-02T05:27:33.476Z,16.46
2022-08-02T05:28:33.426Z,16.39
2022-08-02T05:29:33.362Z,16.41
2022-08-02T05:30:33.306Z,16.38
2022-08-02T05:31:33.257Z,16.38
2022-08-02T05:32:33.221Z,16.41
2022-08-02T05:33:33.156Z,16.39
2022-08-02T05:34:33.107Z,16.38
2022-08-02T05:35:33.070Z,16.46
2022-08-02T05:36:33.008Z,16.46
2022-08-02T05:37:33.161Z,16.57
2022-08-02T05:38:32.918Z,16.56
2022-08-02T05:39:32.854Z,16.64
2022-08-02T05:40:32.801Z,16.64
2022-08-02T05:41:32.752Z,16.71
2022-08-02T05:42:32.718Z,16.76
2022-08-02T05:43:32.654Z,16.81
2022-08-02T05:44:32.646Z,16.83
2022-08-02T05:45:32.565Z,16.87
2022-08-02T05:46:32.499Z,16.93
2022-08-02T05:47:32.451Z,16.93
2022-08-02T05:48:32.520Z,17.05
2022-08-02T05:49:32.384Z,17.06
2022-08-02T05:50:32.313Z,17.19
2022-08-02T05:51:32.498Z,17.16
2022-08-02T05:52:32.197Z,17.27
2022-08-02T05:53:32.164Z,17.26
2022-08-02T05:54:32.096Z,17.39
2022-08-02T05:55:32.049Z,17.38
2022-08-02T05:56:31.998Z,17.41
2022-08-02T05:57:31.969Z,17.45
2022-08-02T05:58:31.912Z,17.48
2022-08-02T05:59:31.865Z,17.54
2022-08-02T06:00:31.802Z,17.52
2022-08-02T06:01:31.810Z,17.67
2022-08-02T06:02:31.717Z,17.68
2022-08-02T06:03:31.647Z,17.72
2022-08-02T06:04:31.657Z,17.79
2022-08-02T06:05:31.565Z,17.78
2022-08-02T06:06:31.496Z,17.89
2022-08-02T06:07:31.446Z,17.90
2022-08-02T06:08:31.407Z,17.92
2022-08-02T06:09:31.346Z,17.97
2022-08-02T06:10:31.295Z,18.00
2022-08-02T06:11:31.249Z,18.07
2022-08-02T06:12:31.272Z,18.00
2022-08-02T06:13:31.164Z,18.11
2022-08-02T06:14:31.094Z,18.01
2022-08-02T06:15:31.058Z,17.98
2022-08-02T06:16:32.528Z,18.04
2022-08-02T06:17:30.948Z,18.15
2022-08-02T06:18:30.894Z,18.15
2022-08-02T06:19:30.858Z,18.18
2022-08-02T06:20:30.795Z,18.07
2022-08-02T06:22:34.780Z,18.22
2022-08-02T06:22:35.577Z,18.13
2022-08-02T06:23:30.668Z,18.23
2022-08-02T06:24:30.596Z,18.31
2022-08-02T06:25:48.380Z,18.26
2022-08-02T06:26:30.552Z,18.26
2022-08-02T06:27:30.448Z,18.25
2022-08-02T06:28:30.410Z,18.38
2022-08-02T06:29:30.350Z,18.38
2022-08-02T06:30:30.319Z,18.40
2022-08-02T06:31:30.246Z,18.43
2022-08-02T06:32:30.198Z,18.47
2022-08-02T06:33:30.149Z,18.40
2022-08-02T06:34:30.103Z,18.49
2022-08-02T06:35:30.064Z,18.50
2022-08-02T06:36:30.002Z,18.49
2022-08-02T06:37:29.949Z,18.50
2022-08-02T06:38:29.900Z,18.52
2022-08-02T06:39:29.865Z,18.52
2022-08-02T06:40:29.806Z,18.60
2022-08-02T06:41:29.756Z,18.52
2022-08-02T06:42:29.705Z,18.63
2022-08-02T06:43:29.654Z,18.70
2022-08-02T06:44:50.724Z,18.63
2022-08-02T06:45:29.552Z,18.70
2022-08-02T06:46:34.474Z,18.73
2022-08-02T06:47:29.455Z,18.78
2022-08-02T06:48:29.403Z,18.84
2022-08-02T06:49:52.879Z,18.80
2022-08-02T06:50:29.307Z,18.86
2022-08-02T06:51:29.272Z,18.90
2022-08-02T06:52:30.377Z,18.88
2022-08-02T06:53:29.169Z,18.86
2022-08-02T06:54:29.124Z,18.96
2022-08-02T06:55:29.059Z,18.98
2022-08-02T06:56:29.053Z,19.11
2022-08-02T06:57:28.967Z,19.09
2022-08-02T06:58:28.912Z,19.14
2022-08-02T06:59:28.879Z,19.07
2022-08-02T07:00:28.814Z,19.24
2022-08-02T07:01:28.810Z,19.12
2022-08-02T07:02:28.729Z,19.31
2022-08-02T07:03:28.681Z,19.29
2022-08-02T07:04:28.617Z,19.34
2022-08-02T07:05:28.573Z,19.41
2022-08-02T07:06:28.519Z,19.45
2022-08-02T07:07:28.472Z,19.48
2022-08-02T07:08:28.434Z,19.54
2022-08-02T07:09:28.392Z,19.56
2022-08-02T07:10:28.338Z,19.73
2022-08-02T07:11:28.274Z,19.79
2022-08-02T07:12:28.226Z,19.71
2022-08-02T07:13:28.176Z,19.92
2022-08-02T07:14:28.140Z,19.89
2022-08-02T07:15:28.096Z,19.85
2022-08-02T07:16:28.030Z,19.99
2022-08-02T07:17:27.999Z,19.92
2022-08-02T07:18:27.930Z,19.91
2022-08-02T07:19:38.016Z,20.07
2022-08-02T07:20:27.849Z,20.00
2022-08-02T07:21:56.601Z,19.96
2022-08-02T07:22:27.750Z,20.00
2022-08-02T07:23:27.687Z,20.03
2022-08-02T07:24:27.636Z,20.00
2022-08-02T07:26:01.856Z,20.13
2022-08-02T07:26:27.541Z,20.07
2022-08-02T07:27:27.504Z,20.07
2022-08-02T07:28:27.482Z,20.11
2022-08-02T07:29:27.399Z,20.21
2022-08-02T07:30:27.362Z,20.24
2022-08-02T07:31:27.352Z,20.25
2022-08-02T07:32:27.263Z,20.31
2022-08-02T07:33:37.404Z,20.37
2022-08-02T07:34:27.167Z,20.40
2022-08-02T07:35:27.118Z,20.25
2022-08-02T07:36:27.053Z,20.34
2022-08-02T07:37:52.687Z,20.34
2022-08-02T07:38:26.982Z,20.34
2022-08-02T07:39:26.935Z,20.43
2022-08-02T07:40:26.861Z,20.51
2022-08-02T07:41:26.811Z,20.48
2022-08-02T07:42:26.763Z,20.60
2022-08-02T07:43:26.730Z,20.59
2022-08-02T07:44:26.667Z,20.69
2022-08-02T07:45:26.621Z,20.75
2022-08-02T07:46:26.570Z,20.81
2022-08-02T07:47:26.524Z,20.82
2022-08-02T07:48:26.487Z,20.87
2022-08-02T07:49:26.467Z,20.87
2022-08-02T07:50:26.382Z,20.87
2022-08-02T07:51:26.329Z,20.92
2022-08-02T07:52:26.319Z,20.88
2022-08-02T07:53:49.931Z,20.87
2022-08-02T07:54:26.183Z,21.00
2022-08-02T07:55:35.232Z,20.96
2022-08-02T07:56:26.102Z,20.97
2022-08-02T07:57:26.042Z,21.06
2022-08-02T07:58:25.991Z,21.15
2022-08-02T07:59:25.946Z,21.24
2022-08-02T08:00:25.917Z,21.24
2022-08-02T08:01:25.926Z,21.27
2022-08-02T08:02:25.810Z,21.40
2022-08-02T08:03:25.770Z,21.33
2022-08-02T08:04:25.703Z,21.45
2022-08-02T08:05:25.658Z,21.37
2022-08-02T08:06:28.489Z,21.48
2022-08-02T08:07:25.566Z,21.57
2022-08-02T08:08:25.532Z,21.69
2022-08-02T08:09:25.467Z,21.66
2022-08-02T08:10:25.433Z,21.72
2022-08-02T08:11:25.368Z,21.72
2022-08-02T08:12:25.322Z,21.79
2022-08-02T08:13:25.291Z,21.82
2022-08-02T08:14:25.238Z,21.80
2022-08-02T08:15:25.193Z,22.02
2022-08-02T08:16:25.133Z,21.99
2022-08-02T08:17:25.085Z,22.02
2022-08-02T08:18:25.044Z,22.00
2022-08-02T08:19:50.237Z,22.14
2022-08-02T08:20:24.940Z,22.23
2022-08-02T08:21:24.895Z,22.23
2022-08-02T08:22:24.856Z,22.22
2022-08-02T08:23:24.805Z,22.30
2022-08-02T08:24:24.765Z,22.47
2022-08-02T08:25:24.704Z,22.53
2022-08-02T08:26:24.673Z,22.68
2022-08-02T08:27:24.612Z,22.94
2022-08-02T08:28:24.595Z,23.13
2022-08-02T08:29:24.517Z,23.51
2022-08-02T08:30:24.467Z,23.81
2022-08-02T08:31:24.439Z,24.11
2022-08-02T08:32:24.854Z,24.30
2022-08-02T08:33:24.329Z,24.69
2022-08-02T08:34:24.289Z,24.96
2022-08-02T08:35:24.252Z,25.21
2022-08-02T08:36:24.192Z,25.53
2022-08-02T08:37:24.157Z,25.87
2022-08-02T08:38:24.109Z,26.05
2022-08-02T08:39:24.046Z,26.33
2022-08-02T08:40:24.001Z,26.56
2022-08-02T08:41:23.971Z,26.75
2022-08-02T08:42:23.920Z,26.95
2022-08-02T08:43:23.865Z,27.22
2022-08-02T08:44:23.822Z,27.65
2022-08-02T08:45:23.786Z,27.87
2022-08-02T08:46:23.737Z,28.01
2022-08-02T08:47:23.677Z,28.19
2022-08-02T08:48:30.518Z,28.32
2022-08-02T08:49:23.633Z,28.47
2022-08-02T08:50:25.379Z,28.51
2022-08-02T08:51:23.497Z,28.67
2022-08-02T08:52:23.466Z,29.04
2022-08-02T08:53:23.406Z,29.17
2022-08-02T08:54:23.360Z,29.13
2022-08-02T08:55:23.332Z,29.27
2022-08-02T08:56:23.270Z,29.31
2022-08-02T08:57:23.229Z,29.32
2022-08-02T08:58:23.183Z,29.38
2022-08-02T08:59:23.152Z,29.50
2022-08-02T09:00:23.150Z,29.79
2022-08-02T09:01:23.125Z,29.88
2022-08-02T09:02:27.747Z,29.86
2022-08-02T09:03:22.974Z,29.95
2022-08-02T09:04:22.915Z,30.03
2022-08-02T09:05:22.893Z,30.13
2022-08-02T09:06:22.829Z,30.15
2022-08-02T09:07:22.792Z,30.10
2022-08-02T09:08:22.757Z,30.15
2022-08-02T09:09:22.706Z,30.18
2022-08-02T09:10:22.672Z,30.21
2022-08-02T09:11:22.615Z,30.39
2022-08-02T09:12:22.645Z,30.44
2022-08-02T09:13:38.773Z,30.48
2022-08-02T09:14:22.488Z,30.53
2022-08-02T09:15:22.463Z,30.59
2022-08-02T09:16:22.396Z,30.69
2022-08-02T09:17:22.356Z,30.83
2022-08-02T09:18:22.311Z,30.63
2022-08-02T09:19:22.270Z,30.61
2022-08-02T09:20:22.242Z,30.72
2022-08-02T09:21:22.184Z,30.83
2022-08-02T09:22:22.142Z,31.00
2022-08-02T09:23:22.201Z,30.92
2022-08-02T09:24:22.057Z,31.03
2022-08-02T09:25:22.016Z,31.20
2022-08-02T09:26:21.981Z,31.40
2022-08-02T09:27:21.932Z,31.52
2022-08-02T09:28:21.908Z,31.52
2022-08-02T09:29:21.849Z,31.28
2022-08-02T09:30:21.812Z,31.17
2022-08-02T09:31:21.768Z,31.17
2022-08-02T09:32:21.723Z,30.81
2022-08-02T09:33:21.708Z,30.70
2022-08-02T09:34:21.636Z,30.54
2022-08-02T09:35:21.596Z,30.69
2022-08-02T09:36:21.560Z,30.97
2022-08-02T09:37:21.518Z,31.17
2022-08-02T09:38:21.474Z,31.34
2022-08-02T09:39:21.444Z,31.43
2022-08-02T09:40:21.390Z,31.61
2022-08-02T09:41:22.338Z,31.34
2022-08-02T09:42:21.328Z,30.78
2022-08-02T09:43:21.266Z,30.63
2022-08-02T09:44:21.220Z,30.68
2022-08-02T09:45:21.195Z,30.78
2022-08-02T09:46:22.942Z,31.00
2022-08-02T09:47:21.115Z,31.25
2022-08-02T09:48:21.059Z,31.49
2022-08-02T09:49:21.119Z,31.55
2022-08-02T09:50:20.973Z,31.77
2022-08-02T09:51:20.932Z,31.85
2022-08-02T09:52:20.892Z,31.89
2022-08-02T09:53:20.865Z,31.99
2022-08-02T09:54:20.813Z,32.18
2022-08-02T09:55:20.769Z,32.12
2022-08-02T09:56:35.426Z,32.29
2022-08-02T09:57:20.687Z,32.31
2022-08-02T09:58:20.670Z,32.23
2022-08-02T09:59:20.621Z,32.46
2022-08-02T10:00:36.983Z,32.52
2022-08-02T10:01:20.599Z,32.59
2022-08-02T10:02:22.700Z,32.67
2022-08-02T10:03:22.140Z,32.82
2022-08-02T10:04:22.703Z,32.74
2022-08-02T10:05:20.374Z,32.85
2022-08-02T10:06:20.316Z,32.87
2022-08-02T10:07:21.495Z,32.77
2022-08-02T10:08:20.438Z,32.82
2022-08-02T10:09:20.197Z,32.96
2022-08-02T10:10:20.171Z,33.05
2022-08-02T10:11:20.120Z,33.19
2022-08-02T10:12:20.076Z,33.37
2022-08-02T10:13:21.763Z,33.47
2022-08-02T10:14:19.997Z,33.57
2022-08-02T10:15:22.417Z,33.64
2022-08-02T10:16:19.917Z,33.69
2022-08-02T10:17:19.875Z,33.79
2022-08-02T10:18:37.666Z,34.02
2022-08-02T10:19:59.696Z,34.18
2022-08-02T10:20:19.772Z,34.25
2022-08-02T10:21:19.730Z,34.20
2022-08-02T10:22:20.041Z,34.21
2022-08-02T10:23:19.652Z,34.18
2022-08-02T10:24:19.611Z,33.90
2022-08-02T10:25:19.559Z,33.71
2022-08-02T10:26:19.531Z,33.52
2022-08-02T10:27:19.479Z,33.20
2022-08-02T10:28:19.437Z,32.97
2022-08-02T10:29:28.510Z,32.90
2022-08-02T10:30:19.391Z,32.68
2022-08-02T10:31:19.376Z,32.30
2022-08-02T10:32:19.329Z,32.09
2022-08-02T10:33:19.263Z,32.00
2022-08-02T10:34:19.283Z,32.07
2022-08-02T10:35:25.580Z,32.11
2022-08-02T10:36:19.144Z,32.27
2022-08-02T10:37:19.155Z,32.08
2022-08-02T10:38:19.107Z,31.73
2022-08-02T10:39:19.067Z,31.34
2022-08-02T10:40:19.034Z,31.14
2022-08-02T10:41:18.958Z,30.81
2022-08-02T10:42:18.895Z,30.65
2022-08-02T10:43:18.856Z,30.27
2022-08-02T10:44:24.758Z,30.31
2022-08-02T10:45:18.816Z,30.44
2022-08-02T10:46:18.772Z,30.39
2022-08-02T10:47:18.707Z,30.30
2022-08-02T10:48:18.663Z,30.24
2022-08-02T10:50:18.624Z,30.50
2022-08-02T10:51:18.542Z,30.69
2022-08-02T10:52:18.510Z,31.02
2022-08-02T10:53:18.504Z,31.34
2022-08-02T10:54:18.437Z,31.66
2022-08-02T10:55:22.164Z,31.84
2022-08-02T10:56:18.390Z,32.04
2022-08-02T10:57:18.334Z,32.14
2022-08-02T10:58:18.283Z,32.01
2022-08-02T10:59:18.249Z,31.89
2022-08-02T11:00:19.367Z,31.69
2022-08-02T11:01:18.263Z,31.59
2022-08-02T11:02:18.388Z,31.36
2022-08-02T11:03:18.075Z,31.31
2022-08-02T11:04:18.024Z,31.40
2022-08-02T11:05:18.049Z,31.56
2022-08-02T11:06:25.060Z,31.66
2022-08-02T11:07:17.934Z,31.87
2022-08-02T11:08:17.879Z,32.00
2022-08-02T11:09:17.835Z,31.96
2022-08-02T11:10:17.790Z,31.85
2022-08-02T11:11:17.722Z,31.80
2022-08-02T11:12:17.750Z,31.97
2022-08-02T11:13:17.702Z,32.18
2022-08-02T11:14:17.623Z,32.11
2022-08-02T11:15:17.700Z,31.81
2022-08-02T11:16:17.553Z,31.64
2022-08-02T11:17:17.550Z,31.21
2022-08-02T11:18:17.488Z,31.03
2022-08-02T11:19:17.433Z,30.96
2022-08-02T11:20:17.385Z,30.99
2022-08-02T11:21:17.346Z,31.15
2022-08-02T11:22:20.163Z,31.37
2022-08-02T11:23:17.261Z,31.49
2022-08-02T11:24:17.220Z,31.89
2022-08-02T11:25:17.185Z,32.15
2022-08-02T11:26:17.169Z,32.53
2022-08-02T11:27:17.098Z,32.75
2022-08-02T11:28:17.894Z,32.92
2022-08-02T11:29:17.061Z,33.04
2022-08-02T11:30:16.984Z,33.19
2022-08-02T11:31:16.963Z,33.23
2022-08-02T11:32:16.897Z,33.39
2022-08-02T11:33:16.867Z,33.42
2022-08-02T11:34:36.992Z,32.95
2022-08-02T11:35:16.785Z,32.82
2022-08-02T11:36:16.744Z,32.77
2022-08-02T11:37:16.735Z,33.00
2022-08-02T11:38:16.667Z,33.14
2022-08-02T11:39:16.637Z,33.20
2022-08-02T11:40:19.640Z,33.32
2022-08-02T11:41:16.546Z,33.32
2022-08-02T11:42:16.505Z,33.45
2022-08-02T11:43:16.477Z,33.50
2022-08-02T11:44:16.433Z,33.43
2022-08-02T11:45:21.153Z,33.42
2022-08-02T11:46:16.349Z,33.53
2022-08-02T11:47:16.304Z,33.64
2022-08-02T11:48:16.315Z,33.52
2022-08-02T11:49:16.293Z,33.46
2022-08-02T11:50:16.211Z,33.36
2022-08-02T11:51:16.131Z,33.45
2022-08-02T11:52:16.317Z,33.49
2022-08-02T11:53:16.055Z,33.64
2022-08-02T11:54:16.017Z,33.59
2022-08-02T11:55:16.018Z,33.57
2022-08-02T11:56:17.927Z,33.55
2022-08-02T11:57:19.882Z,33.58
2022-08-02T11:58:15.876Z,33.69
2022-08-02T11:59:15.858Z,33.67
2022-08-02T12:00:15.821Z,33.80
2022-08-02T12:01:15.768Z,33.98
2022-08-02T12:02:15.714Z,34.02
2022-08-02T12:03:19.578Z,34.32
2022-08-02T12:04:15.633Z,34.38
2022-08-02T12:05:15.645Z,34.39
2022-08-02T12:06:16.791Z,34.42
2022-08-02T12:07:15.527Z,34.43
2022-08-02T12:08:17.056Z,34.50
2022-08-02T12:09:18.629Z,34.38
2022-08-02T12:10:18.713Z,34.60
2022-08-02T12:11:15.382Z,34.58
2022-08-02T12:12:15.610Z,34.66
2022-08-02T12:13:15.269Z,34.73
2022-08-02T12:14:15.281Z,34.75
2022-08-02T12:15:15.476Z,34.62
2022-08-02T12:16:15.185Z,34.70
2022-08-02T12:17:15.169Z,34.70
2022-08-02T12:18:15.115Z,34.81
2022-08-02T12:19:15.108Z,34.80
2022-08-02T12:20:15.020Z,34.80
2022-08-02T12:21:15.010Z,34.81
2022-08-02T12:22:15.353Z,34.78
2022-08-02T12:23:15.013Z,34.81
2022-08-02T12:24:14.886Z,34.74
2022-08-02T12:25:14.842Z,34.90
2022-08-02T12:26:16.319Z,35.07
2022-08-02T12:27:14.756Z,35.18
2022-08-02T12:28:17.594Z,35.11
2022-08-02T12:29:14.726Z,35.11
2022-08-02T12:30:14.640Z,35.05
2022-08-02T12:31:14.608Z,35.07
2022-08-02T12:32:14.981Z,35.00
2022-08-02T12:33:14.589Z,34.93
2022-08-02T12:34:14.504Z,34.90
2022-08-02T12:35:14.462Z,34.77
2022-08-02T12:36:14.421Z,34.50
2022-08-02T12:37:14.393Z,34.45
2022-08-02T12:38:14.351Z,34.38
2022-08-02T12:39:14.336Z,34.32
2022-08-02T12:40:14.380Z,34.32
2022-08-02T12:41:30.292Z,34.36
2022-08-02T12:42:14.529Z,34.27
2022-08-02T12:43:14.158Z,34.24
2022-08-02T12:44:14.127Z,34.29
2022-08-02T12:45:14.244Z,34.32
2022-08-02T12:46:14.042Z,34.50
2022-08-02T12:47:14.038Z,34.58
2022-08-02T12:48:13.949Z,34.55
2022-08-02T12:49:18.637Z,34.40
2022-08-02T12:50:13.894Z,34.29
2022-08-02T12:51:13.957Z,34.23
2022-08-02T12:52:14.088Z,34.21
2022-08-02T12:53:13.779Z,34.18